sensor_id;sensor_type;location;lat;lon;timestamp;P1;durP1;ratioP1;P2;durP2;ratioP2
59685;SDS011;45554;51.096;16.976;2023-12-04T00:00:01;42.50;;;32.00;;
59685;SDS011;45554;51.096;16.976;2023-12-04T00:02:58;44.60;;;26.80;;
59685;SDS011;45554;51.096;16.976;2023-12-04T00:05:27;40.10;;;29.10;;
59685;SDS011;45554;51.096;16.976;2023-12-04T00:07:55;39.20;;;24.30;;
59685;SDS011;45554;51.096;16.976;2023-12-04T00:10:23;36.90;;;27.50;;
59685;SDS011;45554;51.096;16.976;2023-12-04T00:12:51;39.30;;;28.10;;
59685;SDS011;45554;51.096;16.976;2023-12-04T00:15:19;40.70;;;26.10;;
59685;SDS011;45554;51.096;16.976;2023-12-04T00:20:17;38.40;;;26.50;;
59685;SDS011;45554;51.096;16.976;2023-12-04T00:22:45;41.30;;;25.70;;
59685;SDS011;45554;51.096;16.976;2023-12-04T00:25:13;41.40;;;26.70;;
59685;SDS011;45554;51.096;16.976;2023-12-04T00:27:41;42.90;;;31.40;;
59685;SDS011;45554;51.096;16.976;2023-12-04T00:30:09;42.10;;;30.40;;
59685;SDS011;45554;51.096;16.976;2023-12-04T00:32:37;42.80;;;30.40;;
59685;SDS011;45554;51.096;16.976;2023-12-04T00:35:05;39.50;;;29.60;;
59685;SDS011;45554;51.096;16.976;2023-12-04T00:37:33;42.70;;;30.70;;
59685;SDS011;45554;51.096;16.976;2023-12-04T00:40:06;43.30;;;31.70;;
59685;SDS011;45554;51.096;16.976;2023-12-04T00:42:37;42.60;;;30.60;;
59685;SDS011;45554;51.096;16.976;2023-12-04T00:45:05;43.80;;;28.00;;
59685;SDS011;45554;51.096;16.976;2023-12-04T00:47:34;43.20;;;30.40;;
59685;SDS011;45554;51.096;16.976;2023-12-04T00:50:02;43.00;;;28.40;;
59685;SDS011;45554;51.096;16.976;2023-12-04T00:52:31;39.80;;;29.30;;
59685;SDS011;45554;51.096;16.976;2023-12-04T00:54:59;40.20;;;24.00;;
59685;SDS011;45554;51.096;16.976;2023-12-04T00:57:27;41.90;;;27.80;;
59685;SDS011;45554;51.096;16.976;2023-12-04T00:59:55;41.00;;;30.30;;
59685;SDS011;45554;51.096;16.976;2023-12-04T01:02:23;39.50;;;26.40;;
59685;SDS011;45554;51.096;16.976;2023-12-04T01:04:51;39.60;;;27.30;;
59685;SDS011;45554;51.096;16.976;2023-12-04T01:07:19;39.50;;;28.90;;
59685;SDS011;45554;51.096;16.976;2023-12-04T01:09:47;41.20;;;28.60;;
59685;SDS011;45554;51.096;16.976;2023-12-04T01:12:16;38.70;;;23.00;;
59685;SDS011;45554;51.096;16.976;2023-12-04T01:14:43;36.50;;;26.70;;
59685;SDS011;45554;51.096;16.976;2023-12-04T01:17:11;36.10;;;27.10;;
59685;SDS011;45554;51.096;16.976;2023-12-04T01:19:39;37.10;;;27.80;;
59685;SDS011;45554;51.096;16.976;2023-12-04T01:22:07;39.50;;;23.40;;
59685;SDS011;45554;51.096;16.976;2023-12-04T01:24:35;39.20;;;26.90;;
59685;SDS011;45554;51.096;16.976;2023-12-04T01:27:03;38.70;;;23.40;;
59685;SDS011;45554;51.096;16.976;2023-12-04T01:29:31;40.30;;;25.80;;
59685;SDS011;45554;51.096;16.976;2023-12-04T01:31:59;40.60;;;23.50;;
59685;SDS011;45554;51.096;16.976;2023-12-04T01:34:28;42.70;;;31.50;;
59685;SDS011;45554;51.096;16.976;2023-12-04T01:36:55;44.50;;;28.10;;
59685;SDS011;45554;51.096;16.976;2023-12-04T01:39:23;40.90;;;27.10;;
59685;SDS011;45554;51.096;16.976;2023-12-04T01:41:51;42.30;;;30.50;;
59685;SDS011;45554;51.096;16.976;2023-12-04T01:44:19;44.40;;;32.50;;
59685;SDS011;45554;51.096;16.976;2023-12-04T01:46:49;43.00;;;24.90;;
59685;SDS011;45554;51.096;16.976;2023-12-04T01:49:17;42.90;;;30.80;;
59685;SDS011;45554;51.096;16.976;2023-12-04T01:51:45;40.40;;;28.70;;
59685;SDS011;45554;51.096;16.976;2023-12-04T01:54:14;37.40;;;22.30;;
59685;SDS011;45554;51.096;16.976;2023-12-04T01:56:43;37.60;;;22.10;;
59685;SDS011;45554;51.096;16.976;2023-12-04T01:59:11;41.80;;;30.40;;
59685;SDS011;45554;51.096;16.976;2023-12-04T02:01:39;38.40;;;27.70;;
59685;SDS011;45554;51.096;16.976;2023-12-04T02:04:08;40.60;;;29.60;;
59685;SDS011;45554;51.096;16.976;2023-12-04T02:06:36;39.70;;;27.10;;
59685;SDS011;45554;51.096;16.976;2023-12-04T02:09:04;38.00;;;23.70;;
59685;SDS011;45554;51.096;16.976;2023-12-04T02:11:34;39.50;;;28.50;;
59685;SDS011;45554;51.096;16.976;2023-12-04T02:14:02;38.70;;;22.60;;
59685;SDS011;45554;51.096;16.976;2023-12-04T02:16:30;42.40;;;29.10;;
59685;SDS011;45554;51.096;16.976;2023-12-04T02:19:01;37.10;;;24.80;;
59685;SDS011;45554;51.096;16.976;2023-12-04T02:21:29;38.50;;;26.70;;
59685;SDS011;45554;51.096;16.976;2023-12-04T02:23:57;41.00;;;29.00;;
59685;SDS011;45554;51.096;16.976;2023-12-04T02:26:28;37.40;;;26.70;;
59685;SDS011;45554;51.096;16.976;2023-12-04T02:29:00;37.30;;;26.00;;
59685;SDS011;45554;51.096;16.976;2023-12-04T02:31:35;40.20;;;28.00;;
59685;SDS011;45554;51.096;16.976;2023-12-04T02:34:06;38.60;;;24.70;;
59685;SDS011;45554;51.096;16.976;2023-12-04T02:36:36;41.30;;;27.90;;
59685;SDS011;45554;51.096;16.976;2023-12-04T02:39:05;38.40;;;22.70;;
59685;SDS011;45554;51.096;16.976;2023-12-04T02:41:33;42.00;;;26.40;;
59685;SDS011;45554;51.096;16.976;2023-12-04T02:44:01;40.00;;;25.90;;
59685;SDS011;45554;51.096;16.976;2023-12-04T02:46:29;36.80;;;24.10;;
59685;SDS011;45554;51.096;16.976;2023-12-04T02:48:57;39.30;;;27.70;;
59685;SDS011;45554;51.096;16.976;2023-12-04T02:51:25;36.20;;;23.90;;
59685;SDS011;45554;51.096;16.976;2023-12-04T02:53:54;33.60;;;22.60;;
59685;SDS011;45554;51.096;16.976;2023-12-04T02:56:22;36.20;;;25.80;;
59685;SDS011;45554;51.096;16.976;2023-12-04T02:58:50;37.30;;;24.90;;
59685;SDS011;45554;51.096;16.976;2023-12-04T03:01:18;34.80;;;15.10;;
59685;SDS011;45554;51.096;16.976;2023-12-04T03:03:46;36.20;;;17.40;;
59685;SDS011;45554;51.096;16.976;2023-12-04T03:06:14;37.90;;;25.20;;
59685;SDS011;45554;51.096;16.976;2023-12-04T03:08:43;36.90;;;26.80;;
59685;SDS011;45554;51.096;16.976;2023-12-04T03:11:11;30.70;;;15.10;;
59685;SDS011;45554;51.096;16.976;2023-12-04T03:13:39;35.80;;;18.30;;
59685;SDS011;45554;51.096;16.976;2023-12-04T03:16:14;36.70;;;17.10;;
59685;SDS011;45554;51.096;16.976;2023-12-04T03:18:46;40.40;;;28.20;;
59685;SDS011;45554;51.096;16.976;2023-12-04T03:21:14;30.70;;;16.60;;
59685;SDS011;45554;51.096;16.976;2023-12-04T03:23:42;38.90;;;28.10;;
59685;SDS011;45554;51.096;16.976;2023-12-04T03:26:10;34.90;;;16.40;;
59685;SDS011;45554;51.096;16.976;2023-12-04T03:28:38;38.70;;;27.60;;
59685;SDS011;45554;51.096;16.976;2023-12-04T03:31:07;32.60;;;17.00;;
59685;SDS011;45554;51.096;16.976;2023-12-04T03:33:36;38.40;;;28.70;;
59685;SDS011;45554;51.096;16.976;2023-12-04T03:36:05;36.20;;;17.70;;
59685;SDS011;45554;51.096;16.976;2023-12-04T03:38:33;40.20;;;29.40;;
59685;SDS011;45554;51.096;16.976;2023-12-04T03:41:01;40.30;;;30.10;;
59685;SDS011;45554;51.096;16.976;2023-12-04T03:43:29;38.80;;;18.30;;
59685;SDS011;45554;51.096;16.976;2023-12-04T03:45:57;36.70;;;18.60;;
59685;SDS011;45554;51.096;16.976;2023-12-04T03:48:26;39.50;;;19.80;;
59685;SDS011;45554;51.096;16.976;2023-12-04T03:50:54;41.40;;;20.90;;
59685;SDS011;45554;51.096;16.976;2023-12-04T03:53:22;40.10;;;21.30;;
59685;SDS011;45554;51.096;16.976;2023-12-04T03:58:19;38.40;;;19.50;;
59685;SDS011;45554;51.096;16.976;2023-12-04T04:00:47;44.90;;;34.00;;
59685;SDS011;45554;51.096;16.976;2023-12-04T04:03:15;41.10;;;20.50;;
59685;SDS011;45554;51.096;16.976;2023-12-04T04:05:43;41.80;;;20.70;;
59685;SDS011;45554;51.096;16.976;2023-12-04T04:08:11;41.60;;;20.20;;
59685;SDS011;45554;51.096;16.976;2023-12-04T04:10:39;43.30;;;20.50;;
59685;SDS011;45554;51.096;16.976;2023-12-04T04:13:07;45.50;;;32.80;;
59685;SDS011;45554;51.096;16.976;2023-12-04T04:15:35;39.00;;;19.10;;
59685;SDS011;45554;51.096;16.976;2023-12-04T04:18:03;45.40;;;32.90;;
59685;SDS011;45554;51.096;16.976;2023-12-04T04:20:31;37.00;;;19.50;;
59685;SDS011;45554;51.096;16.976;2023-12-04T04:22:59;43.10;;;31.70;;
59685;SDS011;45554;51.096;16.976;2023-12-04T04:25:27;37.60;;;18.20;;
59685;SDS011;45554;51.096;16.976;2023-12-04T04:27:58;39.00;;;19.50;;
59685;SDS011;45554;51.096;16.976;2023-12-04T04:30:26;38.90;;;19.00;;
59685;SDS011;45554;51.096;16.976;2023-12-04T04:32:54;40.90;;;20.70;;
59685;SDS011;45554;51.096;16.976;2023-12-04T04:35:22;47.70;;;21.90;;
59685;SDS011;45554;51.096;16.976;2023-12-04T04:37:50;41.00;;;21.00;;
59685;SDS011;45554;51.096;16.976;2023-12-04T04:40:18;44.80;;;33.70;;
59685;SDS011;45554;51.096;16.976;2023-12-04T04:42:46;42.10;;;20.50;;
59685;SDS011;45554;51.096;16.976;2023-12-04T04:45:14;43.10;;;20.90;;
59685;SDS011;45554;51.096;16.976;2023-12-04T04:47:42;44.90;;;22.20;;
59685;SDS011;45554;51.096;16.976;2023-12-04T04:50:10;48.10;;;33.30;;
59685;SDS011;45554;51.096;16.976;2023-12-04T04:52:37;45.30;;;20.90;;
59685;SDS011;45554;51.096;16.976;2023-12-04T04:55:06;44.80;;;20.90;;
59685;SDS011;45554;51.096;16.976;2023-12-04T04:57:34;48.90;;;34.40;;
59685;SDS011;45554;51.096;16.976;2023-12-04T05:00:02;42.40;;;20.10;;
59685;SDS011;45554;51.096;16.976;2023-12-04T05:02:31;40.20;;;18.80;;
59685;SDS011;45554;51.096;16.976;2023-12-04T05:05:00;44.00;;;31.70;;
59685;SDS011;45554;51.096;16.976;2023-12-04T05:07:28;39.70;;;18.90;;
59685;SDS011;45554;51.096;16.976;2023-12-04T05:09:57;36.70;;;18.60;;
59685;SDS011;45554;51.096;16.976;2023-12-04T05:12:25;38.10;;;19.30;;
59685;SDS011;45554;51.096;16.976;2023-12-04T05:14:53;44.10;;;32.00;;
59685;SDS011;45554;51.096;16.976;2023-12-04T05:17:21;41.40;;;19.40;;
59685;SDS011;45554;51.096;16.976;2023-12-04T05:19:48;44.10;;;24.90;;
59685;SDS011;45554;51.096;16.976;2023-12-04T05:22:19;41.20;;;20.00;;
59685;SDS011;45554;51.096;16.976;2023-12-04T05:24:47;42.80;;;21.60;;
59685;SDS011;45554;51.096;16.976;2023-12-04T05:27:15;41.00;;;21.10;;
59685;SDS011;45554;51.096;16.976;2023-12-04T05:29:43;38.20;;;20.10;;
59685;SDS011;45554;51.096;16.976;2023-12-04T05:32:11;40.40;;;21.30;;
59685;SDS011;45554;51.096;16.976;2023-12-04T05:34:39;44.20;;;20.00;;
59685;SDS011;45554;51.096;16.976;2023-12-04T05:37:07;43.30;;;31.30;;
59685;SDS011;45554;51.096;16.976;2023-12-04T05:39:36;41.30;;;31.60;;
59685;SDS011;45554;51.096;16.976;2023-12-04T05:42:04;37.30;;;18.50;;
59685;SDS011;45554;51.096;16.976;2023-12-04T05:44:32;44.60;;;24.70;;
59685;SDS011;45554;51.096;16.976;2023-12-04T05:47:00;43.00;;;22.90;;
59685;SDS011;45554;51.096;16.976;2023-12-04T05:49:28;45.10;;;24.50;;
59685;SDS011;45554;51.096;16.976;2023-12-04T05:51:58;38.00;;;19.20;;
59685;SDS011;45554;51.096;16.976;2023-12-04T05:54:26;37.80;;;17.50;;
59685;SDS011;45554;51.096;16.976;2023-12-04T05:56:54;38.70;;;20.30;;
59685;SDS011;45554;51.096;16.976;2023-12-04T05:59:22;44.20;;;25.30;;
59685;SDS011;45554;51.096;16.976;2023-12-04T06:01:50;38.80;;;18.80;;
59685;SDS011;45554;51.096;16.976;2023-12-04T06:04:18;40.70;;;20.30;;
59685;SDS011;45554;51.096;16.976;2023-12-04T06:06:46;41.10;;;29.60;;
59685;SDS011;45554;51.096;16.976;2023-12-04T06:09:14;44.80;;;19.90;;
59685;SDS011;45554;51.096;16.976;2023-12-04T06:11:45;46.00;;;33.70;;
59685;SDS011;45554;51.096;16.976;2023-12-04T06:14:14;41.00;;;20.20;;
59685;SDS011;45554;51.096;16.976;2023-12-04T06:16:42;41.10;;;19.50;;
59685;SDS011;45554;51.096;16.976;2023-12-04T06:19:10;37.70;;;19.90;;
59685;SDS011;45554;51.096;16.976;2023-12-04T06:21:38;43.70;;;21.00;;
59685;SDS011;45554;51.096;16.976;2023-12-04T06:24:07;41.50;;;18.70;;
59685;SDS011;45554;51.096;16.976;2023-12-04T06:26:36;41.90;;;20.20;;
59685;SDS011;45554;51.096;16.976;2023-12-04T06:29:09;48.90;;;34.00;;
59685;SDS011;45554;51.096;16.976;2023-12-04T06:31:37;36.00;;;19.20;;
59685;SDS011;45554;51.096;16.976;2023-12-04T06:34:05;39.70;;;21.00;;
59685;SDS011;45554;51.096;16.976;2023-12-04T06:36:38;38.70;;;20.60;;
59685;SDS011;45554;51.096;16.976;2023-12-04T06:39:12;44.90;;;22.50;;
59685;SDS011;45554;51.096;16.976;2023-12-04T06:41:41;51.20;;;34.10;;
59685;SDS011;45554;51.096;16.976;2023-12-04T06:46:39;43.90;;;20.00;;
59685;SDS011;45554;51.096;16.976;2023-12-04T06:49:08;47.80;;;21.10;;
59685;SDS011;45554;51.096;16.976;2023-12-04T06:51:39;41.70;;;21.20;;
59685;SDS011;45554;51.096;16.976;2023-12-04T06:54:08;44.30;;;22.40;;
59685;SDS011;45554;51.096;16.976;2023-12-04T06:56:36;49.40;;;23.50;;
59685;SDS011;45554;51.096;16.976;2023-12-04T06:59:03;52.80;;;35.80;;
59685;SDS011;45554;51.096;16.976;2023-12-04T07:01:31;45.90;;;21.80;;
59685;SDS011;45554;51.096;16.976;2023-12-04T07:04:00;50.60;;;23.80;;
59685;SDS011;45554;51.096;16.976;2023-12-04T07:06:28;47.70;;;24.70;;
59685;SDS011;45554;51.096;16.976;2023-12-04T07:08:56;52.00;;;37.50;;
59685;SDS011;45554;51.096;16.976;2023-12-04T07:11:38;43.00;;;21.60;;
59685;SDS011;45554;51.096;16.976;2023-12-04T07:14:06;53.00;;;34.90;;
59685;SDS011;45554;51.096;16.976;2023-12-04T07:16:41;53.30;;;37.80;;
59685;SDS011;45554;51.096;16.976;2023-12-04T07:19:10;43.20;;;19.50;;
59685;SDS011;45554;51.096;16.976;2023-12-04T07:21:39;58.70;;;35.80;;
59685;SDS011;45554;51.096;16.976;2023-12-04T07:24:07;49.20;;;25.10;;
59685;SDS011;45554;51.096;16.976;2023-12-04T07:26:36;55.20;;;39.20;;
59685;SDS011;45554;51.096;16.976;2023-12-04T07:29:04;52.40;;;26.70;;
59685;SDS011;45554;51.096;16.976;2023-12-04T07:31:32;62.10;;;37.70;;
59685;SDS011;45554;51.096;16.976;2023-12-04T07:34:00;58.20;;;31.10;;
59685;SDS011;45554;51.096;16.976;2023-12-04T07:36:29;57.10;;;41.10;;
59685;SDS011;45554;51.096;16.976;2023-12-04T07:38:57;54.10;;;24.80;;
59685;SDS011;45554;51.096;16.976;2023-12-04T07:41:25;56.90;;;27.30;;
59685;SDS011;45554;51.096;16.976;2023-12-04T07:43:54;53.40;;;27.00;;
59685;SDS011;45554;51.096;16.976;2023-12-04T07:46:22;54.90;;;35.30;;
59685;SDS011;45554;51.096;16.976;2023-12-04T07:48:50;58.30;;;42.10;;
59685;SDS011;45554;51.096;16.976;2023-12-04T07:51:23;54.10;;;26.10;;
59685;SDS011;45554;51.096;16.976;2023-12-04T07:53:52;57.60;;;40.80;;
59685;SDS011;45554;51.096;16.976;2023-12-04T07:56:20;55.00;;;39.10;;
59685;SDS011;45554;51.096;16.976;2023-12-04T07:58:50;58.90;;;41.20;;
59685;SDS011;45554;51.096;16.976;2023-12-04T08:01:18;51.80;;;24.90;;
59685;SDS011;45554;51.096;16.976;2023-12-04T08:03:48;47.50;;;25.10;;
59685;SDS011;45554;51.096;16.976;2023-12-04T08:06:16;58.70;;;37.80;;
59685;SDS011;45554;51.096;16.976;2023-12-04T08:08:46;56.40;;;40.30;;
59685;SDS011;45554;51.096;16.976;2023-12-04T08:11:14;51.90;;;24.60;;
59685;SDS011;45554;51.096;16.976;2023-12-04T08:13:42;50.60;;;24.60;;
59685;SDS011;45554;51.096;16.976;2023-12-04T08:16:13;56.90;;;40.10;;
59685;SDS011;45554;51.096;16.976;2023-12-04T08:18:47;57.90;;;39.30;;
59685;SDS011;45554;51.096;16.976;2023-12-04T08:21:16;51.00;;;23.80;;
59685;SDS011;45554;51.096;16.976;2023-12-04T08:23:44;56.70;;;28.60;;
59685;SDS011;45554;51.096;16.976;2023-12-04T08:26:12;65.70;;;44.90;;
59685;SDS011;45554;51.096;16.976;2023-12-04T08:28:40;62.10;;;34.50;;
59685;SDS011;45554;51.096;16.976;2023-12-04T08:31:09;68.40;;;40.30;;
59685;SDS011;45554;51.096;16.976;2023-12-04T08:33:37;61.10;;;44.20;;
59685;SDS011;45554;51.096;16.976;2023-12-04T08:36:06;58.40;;;35.10;;
59685;SDS011;45554;51.096;16.976;2023-12-04T08:38:34;58.30;;;40.20;;
59685;SDS011;45554;51.096;16.976;2023-12-04T08:41:03;57.80;;;34.60;;
59685;SDS011;45554;51.096;16.976;2023-12-04T08:43:34;51.80;;;36.40;;
59685;SDS011;45554;51.096;16.976;2023-12-04T08:46:02;52.70;;;37.70;;
59685;SDS011;45554;51.096;16.976;2023-12-04T08:48:31;72.30;;;44.20;;
59685;SDS011;45554;51.096;16.976;2023-12-04T08:51:03;67.40;;;44.70;;
59685;SDS011;45554;51.096;16.976;2023-12-04T08:53:32;69.10;;;44.30;;
59685;SDS011;45554;51.096;16.976;2023-12-04T08:56:00;69.00;;;48.50;;
59685;SDS011;45554;51.096;16.976;2023-12-04T08:58:30;69.50;;;47.50;;
59685;SDS011;45554;51.096;16.976;2023-12-04T09:00:59;59.40;;;41.40;;
59685;SDS011;45554;51.096;16.976;2023-12-04T09:03:30;58.50;;;40.60;;
59685;SDS011;45554;51.096;16.976;2023-12-04T09:06:02;57.00;;;40.20;;
59685;SDS011;45554;51.096;16.976;2023-12-04T09:08:31;51.40;;;37.40;;
59685;SDS011;45554;51.096;16.976;2023-12-04T09:11:11;53.00;;;37.70;;
59685;SDS011;45554;51.096;16.976;2023-12-04T09:16:19;46.20;;;34.10;;
59685;SDS011;45554;51.096;16.976;2023-12-04T09:18:48;45.30;;;33.70;;
59685;SDS011;45554;51.096;16.976;2023-12-04T09:21:20;47.30;;;34.10;;
59685;SDS011;45554;51.096;16.976;2023-12-04T09:23:49;46.00;;;33.80;;
59685;SDS011;45554;51.096;16.976;2023-12-04T09:28:49;47.30;;;33.70;;
59685;SDS011;45554;51.096;16.976;2023-12-04T09:31:17;48.90;;;34.30;;
59685;SDS011;45554;51.096;16.976;2023-12-04T09:33:46;49.30;;;35.40;;
59685;SDS011;45554;51.096;16.976;2023-12-04T09:36:17;48.50;;;34.20;;
59685;SDS011;45554;51.096;16.976;2023-12-04T09:38:46;46.60;;;33.60;;
59685;SDS011;45554;51.096;16.976;2023-12-04T09:41:17;45.20;;;32.10;;
59685;SDS011;45554;51.096;16.976;2023-12-04T09:43:46;41.40;;;30.30;;
59685;SDS011;45554;51.096;16.976;2023-12-04T09:46:15;43.50;;;30.90;;
59685;SDS011;45554;51.096;16.976;2023-12-04T09:48:44;42.00;;;30.50;;
59685;SDS011;45554;51.096;16.976;2023-12-04T09:51:14;41.10;;;29.70;;
59685;SDS011;45554;51.096;16.976;2023-12-04T09:53:46;38.80;;;28.40;;
59685;SDS011;45554;51.096;16.976;2023-12-04T09:56:16;38.50;;;27.90;;
59685;SDS011;45554;51.096;16.976;2023-12-04T09:58:46;38.90;;;29.00;;
59685;SDS011;45554;51.096;16.976;2023-12-04T10:01:20;40.00;;;29.10;;
59685;SDS011;45554;51.096;16.976;2023-12-04T10:03:49;39.60;;;29.60;;
59685;SDS011;45554;51.096;16.976;2023-12-04T10:06:18;39.00;;;28.20;;
59685;SDS011;45554;51.096;16.976;2023-12-04T10:08:47;38.00;;;28.50;;
59685;SDS011;45554;51.096;16.976;2023-12-04T10:11:15;36.40;;;26.80;;
59685;SDS011;45554;51.096;16.976;2023-12-04T10:13:45;40.70;;;30.20;;
59685;SDS011;45554;51.096;16.976;2023-12-04T10:16:31;41.30;;;30.80;;
59685;SDS011;45554;51.096;16.976;2023-12-04T10:19:20;43.30;;;31.40;;
59685;SDS011;45554;51.096;16.976;2023-12-04T10:21:58;40.30;;;28.90;;
59685;SDS011;45554;51.096;16.976;2023-12-04T10:24:28;40.40;;;28.90;;
59685;SDS011;45554;51.096;16.976;2023-12-04T10:27:05;37.60;;;27.70;;
59685;SDS011;45554;51.096;16.976;2023-12-04T10:29:43;40.80;;;29.80;;
59685;SDS011;45554;51.096;16.976;2023-12-04T10:32:19;43.20;;;28.80;;
59685;SDS011;45554;51.096;16.976;2023-12-04T10:34:49;41.30;;;28.60;;
59685;SDS011;45554;51.096;16.976;2023-12-04T10:37:18;40.20;;;29.40;;
59685;SDS011;45554;51.096;16.976;2023-12-04T10:42:27;42.00;;;30.90;;
59685;SDS011;45554;51.096;16.976;2023-12-04T10:44:56;39.00;;;28.90;;
59685;SDS011;45554;51.096;16.976;2023-12-04T10:47:26;40.80;;;29.40;;
59685;SDS011;45554;51.096;16.976;2023-12-04T10:49:56;41.40;;;29.90;;
59685;SDS011;45554;51.096;16.976;2023-12-04T10:52:25;39.80;;;28.40;;
59685;SDS011;45554;51.096;16.976;2023-12-04T10:54:53;37.40;;;27.00;;
59685;SDS011;45554;51.096;16.976;2023-12-04T10:57:26;36.00;;;26.90;;
59685;SDS011;45554;51.096;16.976;2023-12-04T10:59:59;37.50;;;28.10;;
59685;SDS011;45554;51.096;16.976;2023-12-04T11:02:33;38.40;;;28.40;;
59685;SDS011;45554;51.096;16.976;2023-12-04T11:05:07;37.00;;;26.20;;
59685;SDS011;45554;51.096;16.976;2023-12-04T11:07:49;36.80;;;27.70;;
59685;SDS011;45554;51.096;16.976;2023-12-04T11:13:28;35.50;;;26.90;;
59685;SDS011;45554;51.096;16.976;2023-12-04T11:16:08;38.60;;;27.30;;
59685;SDS011;45554;51.096;16.976;2023-12-04T11:18:43;38.70;;;27.30;;
59685;SDS011;45554;51.096;16.976;2023-12-04T11:21:16;38.50;;;28.20;;
59685;SDS011;45554;51.096;16.976;2023-12-04T11:23:47;35.00;;;26.40;;
59685;SDS011;45554;51.096;16.976;2023-12-04T11:26:15;37.10;;;26.90;;
59685;SDS011;45554;51.096;16.976;2023-12-04T11:28:45;38.00;;;27.10;;
59685;SDS011;45554;51.096;16.976;2023-12-04T11:31:15;39.00;;;28.50;;
59685;SDS011;45554;51.096;16.976;2023-12-04T11:33:44;35.90;;;27.40;;
59685;SDS011;45554;51.096;16.976;2023-12-04T11:36:12;41.10;;;29.80;;
59685;SDS011;45554;51.096;16.976;2023-12-04T11:38:45;41.70;;;30.20;;
59685;SDS011;45554;51.096;16.976;2023-12-04T11:41:16;39.00;;;27.80;;
59685;SDS011;45554;51.096;16.976;2023-12-04T11:43:50;39.10;;;27.90;;
59685;SDS011;45554;51.096;16.976;2023-12-04T11:46:20;38.50;;;28.30;;
59685;SDS011;45554;51.096;16.976;2023-12-04T11:48:53;41.80;;;29.60;;
59685;SDS011;45554;51.096;16.976;2023-12-04T11:54:09;44.50;;;31.50;;
59685;SDS011;45554;51.096;16.976;2023-12-04T11:56:38;44.40;;;32.10;;
59685;SDS011;45554;51.096;16.976;2023-12-04T11:59:09;47.10;;;32.80;;
59685;SDS011;45554;51.096;16.976;2023-12-04T12:01:54;45.00;;;32.90;;
59685;SDS011;45554;51.096;16.976;2023-12-04T12:04:26;45.30;;;32.10;;
59685;SDS011;45554;51.096;16.976;2023-12-04T12:06:59;46.60;;;33.90;;
59685;SDS011;45554;51.096;16.976;2023-12-04T12:09:30;46.10;;;33.90;;
59685;SDS011;45554;51.096;16.976;2023-12-04T12:12:02;46.30;;;34.00;;
59685;SDS011;45554;51.096;16.976;2023-12-04T12:14:31;48.00;;;35.50;;
59685;SDS011;45554;51.096;16.976;2023-12-04T12:17:00;50.10;;;36.10;;
59685;SDS011;45554;51.096;16.976;2023-12-04T12:19:29;49.30;;;36.20;;
59685;SDS011;45554;51.096;16.976;2023-12-04T12:21:58;48.80;;;37.20;;
59685;SDS011;45554;51.096;16.976;2023-12-04T12:24:26;52.00;;;38.70;;
59685;SDS011;45554;51.096;16.976;2023-12-04T12:26:54;52.00;;;40.00;;
59685;SDS011;45554;51.096;16.976;2023-12-04T12:29:24;52.30;;;37.80;;
59685;SDS011;45554;51.096;16.976;2023-12-04T12:31:52;53.40;;;39.40;;
59685;SDS011;45554;51.096;16.976;2023-12-04T12:34:21;51.70;;;38.60;;
59685;SDS011;45554;51.096;16.976;2023-12-04T12:36:49;53.70;;;40.50;;
59685;SDS011;45554;51.096;16.976;2023-12-04T12:39:18;51.00;;;39.20;;
59685;SDS011;45554;51.096;16.976;2023-12-04T12:41:50;50.10;;;38.10;;
59685;SDS011;45554;51.096;16.976;2023-12-04T12:44:18;53.10;;;40.50;;
59685;SDS011;45554;51.096;16.976;2023-12-04T12:46:47;54.70;;;41.20;;
59685;SDS011;45554;51.096;16.976;2023-12-04T12:49:17;52.30;;;39.30;;
59685;SDS011;45554;51.096;16.976;2023-12-04T12:52:06;55.60;;;40.20;;
59685;SDS011;45554;51.096;16.976;2023-12-04T12:54:38;61.10;;;41.60;;
59685;SDS011;45554;51.096;16.976;2023-12-04T12:57:08;56.40;;;41.30;;
59685;SDS011;45554;51.096;16.976;2023-12-04T12:59:40;55.60;;;40.80;;
59685;SDS011;45554;51.096;16.976;2023-12-04T13:02:08;54.40;;;41.40;;
59685;SDS011;45554;51.096;16.976;2023-12-04T13:04:42;57.60;;;42.30;;
59685;SDS011;45554;51.096;16.976;2023-12-04T13:07:12;53.50;;;42.20;;
59685;SDS011;45554;51.096;16.976;2023-12-04T13:09:40;58.00;;;43.60;;
59685;SDS011;45554;51.096;16.976;2023-12-04T13:12:09;57.50;;;42.90;;
59685;SDS011;45554;51.096;16.976;2023-12-04T13:14:37;59.40;;;43.70;;
59685;SDS011;45554;51.096;16.976;2023-12-04T13:19:39;59.90;;;44.90;;
59685;SDS011;45554;51.096;16.976;2023-12-04T13:22:09;57.30;;;43.60;;
59685;SDS011;45554;51.096;16.976;2023-12-04T13:24:40;57.80;;;42.20;;
59685;SDS011;45554;51.096;16.976;2023-12-04T13:27:08;57.70;;;43.90;;
59685;SDS011;45554;51.096;16.976;2023-12-04T13:29:37;57.40;;;42.20;;
59685;SDS011;45554;51.096;16.976;2023-12-04T13:32:12;58.50;;;43.80;;
59685;SDS011;45554;51.096;16.976;2023-12-04T13:34:40;60.70;;;45.30;;
59685;SDS011;45554;51.096;16.976;2023-12-04T13:37:08;61.00;;;46.70;;
59685;SDS011;45554;51.096;16.976;2023-12-04T13:39:37;64.40;;;46.50;;
59685;SDS011;45554;51.096;16.976;2023-12-04T13:42:19;62.90;;;45.50;;
59685;SDS011;45554;51.096;16.976;2023-12-04T13:45:06;61.40;;;45.10;;
59685;SDS011;45554;51.096;16.976;2023-12-04T13:47:37;65.10;;;46.70;;
59685;SDS011;45554;51.096;16.976;2023-12-04T13:50:06;63.90;;;47.10;;
59685;SDS011;45554;51.096;16.976;2023-12-04T13:52:36;63.30;;;45.90;;
59685;SDS011;45554;51.096;16.976;2023-12-04T13:55:06;65.00;;;46.00;;
59685;SDS011;45554;51.096;16.976;2023-12-04T13:58:04;61.90;;;44.40;;
59685;SDS011;45554;51.096;16.976;2023-12-04T14:00:33;62.20;;;43.20;;
59685;SDS011;45554;51.096;16.976;2023-12-04T14:03:01;61.30;;;42.90;;
59685;SDS011;45554;51.096;16.976;2023-12-04T14:05:40;58.60;;;43.10;;
59685;SDS011;45554;51.096;16.976;2023-12-04T14:08:10;58.80;;;42.30;;
59685;SDS011;45554;51.096;16.976;2023-12-04T14:10:39;60.60;;;42.80;;
59685;SDS011;45554;51.096;16.976;2023-12-04T14:13:07;60.30;;;43.30;;
59685;SDS011;45554;51.096;16.976;2023-12-04T14:15:35;59.50;;;42.00;;
59685;SDS011;45554;51.096;16.976;2023-12-04T14:18:04;58.20;;;43.30;;
59685;SDS011;45554;51.096;16.976;2023-12-04T14:20:32;61.90;;;44.60;;
59685;SDS011;45554;51.096;16.976;2023-12-04T14:23:01;62.40;;;44.00;;
59685;SDS011;45554;51.096;16.976;2023-12-04T14:25:29;60.40;;;44.20;;
59685;SDS011;45554;51.096;16.976;2023-12-04T14:28:01;58.70;;;42.90;;
59685;SDS011;45554;51.096;16.976;2023-12-04T14:30:33;63.60;;;43.90;;
59685;SDS011;45554;51.096;16.976;2023-12-04T14:33:03;61.90;;;43.90;;
59685;SDS011;45554;51.096;16.976;2023-12-04T14:35:32;63.60;;;46.30;;
59685;SDS011;45554;51.096;16.976;2023-12-04T14:38:00;59.50;;;42.50;;
59685;SDS011;45554;51.096;16.976;2023-12-04T14:40:27;59.20;;;43.80;;
59685;SDS011;45554;51.096;16.976;2023-12-04T14:42:56;61.90;;;44.90;;
59685;SDS011;45554;51.096;16.976;2023-12-04T14:45:24;64.30;;;46.10;;